Time;durP1;ratioP1;P1;durP2;ratioP2;P2;SDS_P1;SDS_P2;PMS_P1;PMS_P2;Temp;Humidity;BMP_temperature;BMP_pressure;BME280_temperature;BME280_humidity;BME280_pressure;Samples;Min_cycle;Max_cycle;Signal;HPM_P1;HPM_P2
2022/07/24 00:01:39;;;;;;;2.65;2.45;;;;;;;;;;5054476;28;20204;-67
2022/07/24 00:04:08;;;;;;;2.80;2.70;;;;;;;;;;5049480;28;20199;-67
2022/07/24 00:06:35;;;;;;;2.42;2.33;;;;;;;;;;5050131;28;20211;-68
2022/07/24 00:09:02;;;;;;;2.88;2.67;;;;;;;;;;5047982;28;20215;-67
2022/07/24 00:11:43;;;;;;;2.65;2.55;;;;;;;;;;5064752;28;20214;-67
2022/07/24 00:14:10;;;;;;;2.90;2.80;;;;;;;;;;5045088;28;20234;-70
2022/07/24 00:16:37;;;;;;;2.70;2.50;;;;;;;;;;5060946;28;20199;-68
2022/07/24 00:19:04;;;;;;;3.05;2.58;;;;;;;;;;5062241;28;20600;-68
2022/07/24 00:21:32;;;;;;;2.65;2.38;;;;;;;;;;5046349;28;20212;-67
2022/07/24 00:23:59;;;;;;;2.58;2.47;;;;;;;;;;5045626;28;20487;-67
2022/07/24 00:26:27;;;;;;;2.45;2.35;;;;;;;;;;5065085;28;20291;-67
2022/07/24 00:28:54;;;;;;;2.33;2.22;;;;;;;;;;5052171;28;20207;-67
2022/07/24 00:31:21;;;;;;;4.28;2.30;;;;;;;;;;5060525;28;20218;-67
2022/07/24 00:33:48;;;;;;;2.70;2.60;;;;;;;;;;5052861;28;20220;-66
2022/07/24 00:36:15;;;;;;;2.30;2.20;;;;;;;;;;5053463;28;20579;-67
2022/07/24 00:38:44;;;;;;;2.88;2.30;;;;;;;;;;5065954;28;20313;-67
2022/07/24 00:41:11;;;;;;;2.13;2.13;;;;;;;;;;5053345;28;20222;-67
2022/07/24 00:43:53;;;;;;;2.50;2.33;;;;;;;;;;5063625;28;20658;-67
2022/07/24 00:46:20;;;;;;;2.78;2.30;;;;;;;;;;5053867;28;20506;-67
2022/07/24 00:48:47;;;;;;;2.15;2.05;;;;;;;;;;5065364;28;20222;-66
2022/07/24 00:51:14;;;;;;;2.97;2.30;;;;;;;;;;5065014;28;20386;-67
2022/07/24 00:53:43;;;;;;;3.53;2.60;;;;;;;;;;5065246;28;20726;-67
2022/07/24 00:56:10;;;;;;;1.90;1.90;;;;;;;;;;5058171;28;20619;-67
2022/07/24 00:58:37;;;;;;;2.20;2.00;;;;;;;;;;5064946;28;20226;-66
2022/07/24 01:01:04;;;;;;;2.53;2.35;;;;;;;;;;5048921;28;20245;-67
2022/07/24 01:03:31;;;;;;;2.40;2.30;;;;;;;;;;5048651;28;20234;-67
2022/07/24 01:05:59;;;;;;;2.20;2.00;;;;;;;;;;5052198;28;20214;-67
2022/07/24 01:08:26;;;;;;;2.50;2.30;;;;;;;;;;5058070;28;20626;-67
2022/07/24 01:10:55;;;;;;;3.47;2.28;;;;;;;;;;5049337;28;20210;-67
2022/07/24 01:13:22;;;;;;;2.55;2.45;;;;;;;;;;5049393;28;20210;-68
2022/07/24 01:15:49;;;;;;;2.35;2.15;;;;;;;;;;5053046;28;20210;-68
2022/07/24 01:18:17;;;;;;;2.40;2.30;;;;;;;;;;5069433;28;20214;-68
2022/07/24 01:20:48;;;;;;;2.25;2.08;;;;;;;;;;5069014;28;20696;-67
2022/07/24 01:23:15;;;;;;;2.85;2.03;;;;;;;;;;5059576;28;20216;-68
2022/07/24 01:25:42;;;;;;;2.90;2.70;;;;;;;;;;5052024;28;20203;-67
2022/07/24 01:28:10;;;;;;;2.13;1.95;;;;;;;;;;5067523;28;20214;-68
2022/07/24 01:30:37;;;;;;;2.50;2.30;;;;;;;;;;5067210;28;20234;-67
2022/07/24 01:33:04;;;;;;;2.08;1.98;;;;;;;;;;5068233;28;20297;-67
2022/07/24 01:35:31;;;;;;;2.08;2.08;;;;;;;;;;5067716;28;20195;-66
2022/07/24 01:37:59;;;;;;;2.20;2.15;;;;;;;;;;5048992;28;20219;-67
2022/07/24 01:40:27;;;;;;;2.78;2.22;;;;;;;;;;5059438;28;20303;-66
2022/07/24 01:42:54;;;;;;;2.53;2.42;;;;;;;;;;5065718;28;20200;-67
2022/07/24 01:45:21;;;;;;;2.55;2.50;;;;;;;;;;5048985;28;20211;-67
2022/07/24 01:47:48;;;;;;;2.13;2.03;;;;;;;;;;5066801;28;20199;-66
2022/07/24 01:50:16;;;;;;;2.08;2.08;;;;;;;;;;5068862;28;20202;-67
2022/07/24 01:52:43;;;;;;;2.95;2.25;;;;;;;;;;5066045;28;20673;-66
2022/07/24 01:55:11;;;;;;;2.25;2.10;;;;;;;;;;5048648;28;20244;-67
2022/07/24 01:57:39;;;;;;;2.63;2.35;;;;;;;;;;5064496;28;20291;-66
2022/07/24 02:00:08;;;;;;;4.20;2.20;;;;;;;;;;5059986;28;20322;-66
2022/07/24 02:02:35;;;;;;;4.43;2.08;;;;;;;;;;5068688;28;20691;-66
2022/07/24 02:05:27;;;;;;;2.40;2.30;;;;;;;;;;5049177;28;20207;-66
2022/07/24 02:07:56;;;;;;;2.40;2.30;;;;;;;;;;5050662;28;20215;-67
2022/07/24 02:10:25;;;;;;;2.58;2.42;;;;;;;;;;5065713;28;20226;-67
2022/07/24 02:12:52;;;;;;;2.60;2.40;;;;;;;;;;5066911;28;20203;-66
2022/07/24 02:15:19;;;;;;;2.47;2.28;;;;;;;;;;5070700;28;20203;-66
2022/07/24 02:17:47;;;;;;;2.38;2.28;;;;;;;;;;5068744;28;20199;-66
2022/07/24 02:20:14;;;;;;;2.33;2.20;;;;;;;;;;5069137;28;20226;-67
2022/07/24 02:22:41;;;;;;;2.40;2.30;;;;;;;;;;5070930;28;20286;-67
2022/07/24 02:25:09;;;;;;;4.20;2.30;;;;;;;;;;5069612;28;20207;-67
2022/07/24 02:27:38;;;;;;;1.95;1.85;;;;;;;;;;5069854;28;20203;-67
2022/07/24 02:30:05;;;;;;;2.22;2.15;;;;;;;;;;5070167;28;20210;-67
2022/07/24 02:32:32;;;;;;;4.55;2.10;;;;;;;;;;5070485;28;20203;-67
2022/07/24 02:34:59;;;;;;;2.67;2.30;;;;;;;;;;5070687;28;20195;-67
2022/07/24 02:37:26;;;;;;;2.10;2.00;;;;;;;;;;5068799;28;20686;-67
2022/07/24 02:39:53;;;;;;;1.90;1.90;;;;;;;;;;5068181;28;20223;-67
2022/07/24 02:42:20;;;;;;;3.50;2.28;;;;;;;;;;5070450;28;20253;-67
2022/07/24 02:44:58;;;;;;;3.28;2.42;;;;;;;;;;5069043;28;20207;-66
2022/07/24 02:47:25;;;;;;;2.38;2.28;;;;;;;;;;5070645;28;20294;-67
2022/07/24 02:49:52;;;;;;;2.45;1.98;;;;;;;;;;5069529;28;20203;-66
2022/07/24 02:52:19;;;;;;;2.33;2.22;;;;;;;;;;5069931;28;20612;-67
2022/07/24 02:54:46;;;;;;;2.40;2.30;;;;;;;;;;5067475;28;20223;-66
2022/07/24 02:57:13;;;;;;;2.92;2.30;;;;;;;;;;5070015;28;20243;-67
2022/07/24 02:59:40;;;;;;;2.53;2.42;;;;;;;;;;5067842;28;20211;-66
2022/07/24 03:02:08;;;;;;;2.22;2.10;;;;;;;;;;5068296;28;20215;-66
2022/07/24 03:04:35;;;;;;;4.90;2.10;;;;;;;;;;5068973;28;20207;-66
2022/07/24 03:07:02;;;;;;;2.53;2.33;;;;;;;;;;5069324;28;20207;-66
2022/07/24 03:09:29;;;;;;;1.95;1.95;;;;;;;;;;5067321;28;20207;-66
2022/07/24 03:11:56;;;;;;;2.60;2.50;;;;;;;;;;5068924;28;20684;-67
2022/07/24 03:14:23;;;;;;;2.50;2.40;;;;;;;;;;5069089;28;20248;-66
2022/07/24 03:16:50;;;;;;;2.33;2.22;;;;;;;;;;5068664;28;20237;-66
2022/07/24 03:19:19;;;;;;;2.20;2.20;;;;;;;;;;5066314;28;20719;-66
2022/07/24 03:21:46;;;;;;;1.90;1.90;;;;;;;;;;5069064;28;20237;-66
2022/07/24 03:24:13;;;;;;;2.40;2.30;;;;;;;;;;5068130;28;20611;-66
2022/07/24 03:26:40;;;;;;;2.65;2.40;;;;;;;;;;5068734;28;20199;-67
2022/07/24 03:29:07;;;;;;;2.50;2.40;;;;;;;;;;5066336;28;20199;-66
2022/07/24 03:31:34;;;;;;;3.25;2.20;;;;;;;;;;5068839;28;20796;-66
2022/07/24 03:34:01;;;;;;;2.13;2.13;;;;;;;;;;5067991;28;20207;-66
2022/07/24 03:36:30;;;;;;;2.08;1.98;;;;;;;;;;5068935;28;20321;-66
2022/07/24 03:38:57;;;;;;;2.30;2.20;;;;;;;;;;5067957;28;20199;-66
2022/07/24 03:41:24;;;;;;;2.47;2.45;;;;;;;;;;5069582;28;20227;-66
2022/07/24 03:43:51;;;;;;;2.22;2.13;;;;;;;;;;5067679;28;20664;-66
2022/07/24 03:46:18;;;;;;;1.98;1.98;;;;;;;;;;5069596;28;20199;-66
2022/07/24 03:48:45;;;;;;;2.40;2.20;;;;;;;;;;5062184;28;20206;-66
2022/07/24 03:51:12;;;;;;;2.20;2.20;;;;;;;;;;5070768;28;20260;-66
2022/07/24 03:53:40;;;;;;;2.38;2.28;;;;;;;;;;5064750;28;20215;-66
2022/07/24 03:56:08;;;;;;;2.42;2.33;;;;;;;;;;5070190;28;20250;-67
2022/07/24 03:58:35;;;;;;;1.77;1.77;;;;;;;;;;5067517;28;20234;-67
2022/07/24 04:01:02;;;;;;;2.30;2.20;;;;;;;;;;5070243;28;20580;-66
2022/07/24 04:03:29;;;;;;;2.35;2.25;;;;;;;;;;5056366;28;20200;-66
2022/07/24 04:05:56;;;;;;;2.58;2.42;;;;;;;;;;5050562;28;20299;-65
2022/07/24 04:08:23;;;;;;;2.63;2.00;;;;;;;;;;5052121;28;20204;-65
2022/07/24 04:10:56;;;;;;;2.35;2.15;;;;;;;;;;5063584;28;20208;-67
2022/07/24 04:13:23;;;;;;;2.08;1.90;;;;;;;;;;5063182;28;20264;-66
2022/07/24 04:15:50;;;;;;;2.25;2.00;;;;;;;;;;5069482;28;20265;-67
2022/07/24 04:18:18;;;;;;;2.20;2.10;;;;;;;;;;5070102;28;20218;-66
2022/07/24 04:20:45;;;;;;;2.83;2.45;;;;;;;;;;5069424;28;20249;-67
2022/07/24 04:23:12;;;;;;;2.28;2.17;;;;;;;;;;5070026;28;20214;-67
2022/07/24 04:25:39;;;;;;;2.22;2.20;;;;;;;;;;5059423;28;20279;-66
2022/07/24 04:28:07;;;;;;;3.17;1.75;;;;;;;;;;5058854;28;20222;-67
2022/07/24 04:30:34;;;;;;;2.05;1.95;;;;;;;;;;5065017;28;20195;-67
2022/07/24 04:33:01;;;;;;;2.17;2.17;;;;;;;;;;5069509;28;20214;-67
2022/07/24 04:35:28;;;;;;;2.50;2.30;;;;;;;;;;5059354;28;20203;-67
2022/07/24 04:37:55;;;;;;;2.38;2.28;;;;;;;;;;5069883;28;20261;-67
2022/07/24 04:40:23;;;;;;;2.28;2.10;;;;;;;;;;5063648;28;20204;-67
2022/07/24 04:42:50;;;;;;;2.60;2.50;;;;;;;;;;5049849;28;20219;-67
2022/07/24 04:45:18;;;;;;;2.40;2.20;;;;;;;;;;5054209;28;20714;-67
2022/07/24 04:47:45;;;;;;;2.55;2.45;;;;;;;;;;5069881;28;20287;-67
2022/07/24 04:50:12;;;;;;;2.60;2.40;;;;;;;;;;5066140;28;20204;-67
2022/07/24 04:52:39;;;;;;;2.38;2.28;;;;;;;;;;5049584;28;20747;-67
2022/07/24 04:55:07;;;;;;;2.00;2.00;;;;;;;;;;5050859;28;20281;-67
2022/07/24 04:57:34;;;;;;;2.13;2.05;;;;;;;;;;5061118;28;20246;-67
2022/07/24 05:00:01;;;;;;;3.15;2.05;;;;;;;;;;5056768;28;20211;-67
2022/07/24 05:02:29;;;;;;;2.55;2.10;;;;;;;;;;5063287;28;20227;-67
2022/07/24 05:04:56;;;;;;;2.20;2.10;;;;;;;;;;5060649;28;20210;-67
2022/07/24 05:07:23;;;;;;;2.15;2.05;;;;;;;;;;5063716;28;20200;-66
2022/07/24 05:09:50;;;;;;;2.28;2.17;;;;;;;;;;5068510;28;20222;-67
2022/07/24 05:12:17;;;;;;;2.45;2.08;;;;;;;;;;5067593;28;20245;-67
2022/07/24 05:14:44;;;;;;;2.53;2.28;;;;;;;;;;5068950;28;20199;-67
2022/07/24 05:17:11;;;;;;;1.80;1.70;;;;;;;;;;5068055;28;20206;-66
2022/07/24 05:19:40;;;;;;;1.90;1.90;;;;;;;;;;5068645;28;20207;-67
2022/07/24 05:22:07;;;;;;;2.13;2.03;;;;;;;;;;5066864;28;20310;-66
2022/07/24 05:24:34;;;;;;;4.00;2.33;;;;;;;;;;5068272;28;20202;-66
2022/07/24 05:27:01;;;;;;;3.38;2.10;;;;;;;;;;5060381;28;20200;-67
2022/07/24 05:29:28;;;;;;;2.47;2.38;;;;;;;;;;5068786;28;20210;-66
2022/07/24 05:31:55;;;;;;;1.90;1.90;;;;;;;;;;5066600;28;20210;-67
2022/07/24 05:34:23;;;;;;;2.85;1.98;;;;;;;;;;5067380;28;20210;-67
2022/07/24 05:36:55;;;;;;;3.08;2.28;;;;;;;;;;5066564;28;20203;-66
2022/07/24 05:39:22;;;;;;;2.97;2.55;;;;;;;;;;5067803;28;20234;-67
2022/07/24 05:41:49;;;;;;;1.80;1.80;;;;;;;;;;5067112;28;20219;-67
2022/07/24 05:44:16;;;;;;;2.55;2.35;;;;;;;;;;5070864;28;20249;-67
2022/07/24 05:46:43;;;;;;;3.50;2.25;;;;;;;;;;5069662;28;20634;-67
2022/07/24 05:49:10;;;;;;;2.28;2.17;;;;;;;;;;5069106;28;20203;-67
2022/07/24 05:51:37;;;;;;;2.50;2.30;;;;;;;;;;5065931;28;20244;-67
2022/07/24 05:54:06;;;;;;;2.03;2.03;;;;;;;;;;5071278;28;20207;-67
2022/07/24 05:56:33;;;;;;;2.05;1.95;;;;;;;;;;5068607;28;20965;-67
2022/07/24 05:59:00;;;;;;;2.53;2.42;;;;;;;;;;5069973;28;20210;-67
2022/07/24 06:01:27;;;;;;;2.30;2.20;;;;;;;;;;5066789;28;20253;-69
2022/07/24 06:03:54;;;;;;;2.60;2.40;;;;;;;;;;5071215;28;20616;-68
2022/07/24 06:06:21;;;;;;;2.47;2.38;;;;;;;;;;5068007;28;20206;-68
2022/07/24 06:08:48;;;;;;;2.35;2.28;;;;;;;;;;5070867;28;20273;-68
2022/07/24 06:11:18;;;;;;;4.65;2.40;;;;;;;;;;5068683;28;20579;-68
2022/07/24 06:13:45;;;;;;;2.40;2.30;;;;;;;;;;5071125;28;20301;-68
2022/07/24 06:16:12;;;;;;;2.45;2.35;;;;;;;;;;5065924;28;20211;-68
2022/07/24 06:18:39;;;;;;;1.90;1.90;;;;;;;;;;5071011;28;20210;-68
2022/07/24 06:21:06;;;;;;;2.55;2.40;;;;;;;;;;5065193;28;20234;-68
2022/07/24 06:23:33;;;;;;;2.38;2.28;;;;;;;;;;5061818;28;20318;-68
2022/07/24 06:26:01;;;;;;;2.22;2.13;;;;;;;;;;5061129;28;20210;-69
2022/07/24 06:28:29;;;;;;;2.83;2.28;;;;;;;;;;5064005;28;20207;-69
2022/07/24 06:30:57;;;;;;;1.90;1.80;;;;;;;;;;5070892;28;20214;-68
2022/07/24 06:33:24;;;;;;;2.50;2.40;;;;;;;;;;5069897;28;20207;-68
2022/07/24 06:35:51;;;;;;;2.85;2.42;;;;;;;;;;5069383;28;20691;-69
2022/07/24 06:38:18;;;;;;;2.10;2.10;;;;;;;;;;5067544;28;20199;-67
2022/07/24 06:40:45;;;;;;;2.20;2.10;;;;;;;;;;5067743;28;20303;-69
2022/07/24 06:43:12;;;;;;;2.45;2.25;;;;;;;;;;5068615;28;20226;-68
2022/07/24 06:45:42;;;;;;;2.40;2.30;;;;;;;;;;5070139;28;20268;-69
2022/07/24 06:48:10;;;;;;;2.47;2.38;;;;;;;;;;5068597;28;20223;-72
2022/07/24 06:50:37;;;;;;;2.30;2.20;;;;;;;;;;5066665;28;20207;-67
2022/07/24 06:53:04;;;;;;;2.42;2.22;;;;;;;;;;5070730;28;20199;-68
2022/07/24 06:55:31;;;;;;;2.50;2.40;;;;;;;;;;5070939;28;20214;-69
2022/07/24 06:57:58;;;;;;;2.55;2.45;;;;;;;;;;5068310;28;20226;-69
2022/07/24 07:00:25;;;;;;;2.25;2.15;;;;;;;;;;5066601;28;20208;-68
2022/07/24 07:02:53;;;;;;;2.33;2.22;;;;;;;;;;5067901;28;20325;-67
2022/07/24 07:05:20;;;;;;;2.42;2.33;;;;;;;;;;5059852;28;20734;-67
2022/07/24 07:07:47;;;;;;;2.22;2.22;;;;;;;;;;5066798;28;20203;-67
2022/07/24 07:10:14;;;;;;;2.42;2.33;;;;;;;;;;5061304;28;20195;-68
2022/07/24 07:12:42;;;;;;;2.67;2.47;;;;;;;;;;5056564;28;20203;-67
2022/07/24 07:15:09;;;;;;;3.90;2.67;;;;;;;;;;5068566;28;20203;-68
2022/07/24 07:17:38;;;;;;;2.53;2.42;;;;;;;;;;5062759;28;20213;-68
2022/07/24 07:20:07;;;;;;;3.30;2.60;;;;;;;;;;5068493;28;20203;-67
2022/07/24 07:22:34;;;;;;;2.50;2.30;;;;;;;;;;5067953;28;20321;-70
2022/07/24 07:25:01;;;;;;;3.00;2.90;;;;;;;;;;5066471;28;20678;-64
2022/07/24 07:27:28;;;;;;;2.70;2.60;;;;;;;;;;5060398;28;20272;-67
2022/07/24 07:29:55;;;;;;;2.45;2.25;;;;;;;;;;5067300;28;20210;-68
2022/07/24 07:32:22;;;;;;;3.08;2.88;;;;;;;;;;5056550;28;20215;-67
2022/07/24 07:34:49;;;;;;;2.75;2.65;;;;;;;;;;5061863;28;20227;-68
2022/07/24 07:37:17;;;;;;;2.60;2.50;;;;;;;;;;5054252;28;20211;-68
2022/07/24 07:39:45;;;;;;;2.35;2.30;;;;;;;;;;5061576;28;20207;-68
2022/07/24 07:42:12;;;;;;;3.22;2.78;;;;;;;;;;5054065;28;20227;-68
2022/07/24 07:44:39;;;;;;;2.95;2.83;;;;;;;;;;5058762;28;20596;-67
2022/07/24 07:47:09;;;;;;;2.47;2.38;;;;;;;;;;5062633;28;20639;-70
2022/07/24 07:49:36;;;;;;;2.33;2.33;;;;;;;;;;5062698;28;20212;-67
2022/07/24 07:52:03;;;;;;;3.78;2.80;;;;;;;;;;5052115;28;20203;-67
2022/07/24 07:54:32;;;;;;;2.63;2.53;;;;;;;;;;5061931;28;20715;-68
2022/07/24 07:56:59;;;;;;;2.88;2.78;;;;;;;;;;5062212;28;20257;-68
2022/07/24 07:59:26;;;;;;;3.05;2.85;;;;;;;;;;5067341;28;20218;-67
2022/07/24 08:01:54;;;;;;;3.42;2.80;;;;;;;;;;5057206;28;20222;-68
2022/07/24 08:04:21;;;;;;;3.00;2.80;;;;;;;;;;5048251;28;20218;-65
2022/07/24 08:06:48;;;;;;;2.83;2.60;;;;;;;;;;5068815;28;20203;-64
2022/07/24 08:09:15;;;;;;;2.92;2.72;;;;;;;;;;5064007;28;20223;-64
2022/07/24 08:11:43;;;;;;;2.97;2.80;;;;;;;;;;5065621;28;20203;-64
2022/07/24 08:14:10;;;;;;;3.28;3.10;;;;;;;;;;5065406;28;20215;-65
2022/07/24 08:16:37;;;;;;;2.60;2.50;;;;;;;;;;5056857;28;20203;-63
2022/07/24 08:19:04;;;;;;;2.72;2.63;;;;;;;;;;5064202;28;20222;-65
2022/07/24 08:21:32;;;;;;;3.30;3.00;;;;;;;;;;5066464;28;20207;-65
2022/07/24 08:23:59;;;;;;;3.20;3.00;;;;;;;;;;5060364;28;20700;-65
2022/07/24 08:26:30;;;;;;;3.97;3.20;;;;;;;;;;5062024;28;20215;-65
2022/07/24 08:28:59;;;;;;;2.92;2.80;;;;;;;;;;5063211;28;20218;-65
2022/07/24 08:31:26;;;;;;;3.35;3.10;;;;;;;;;;5060775;28;20203;-66
2022/07/24 08:33:53;;;;;;;3.38;3.05;;;;;;;;;;5068303;28;20199;-64
2022/07/24 08:36:20;;;;;;;3.30;2.83;;;;;;;;;;5057641;28;20213;-64
2022/07/24 08:38:47;;;;;;;3.38;3.08;;;;;;;;;;5066085;28;20630;-65
2022/07/24 08:41:14;;;;;;;3.40;3.15;;;;;;;;;;5066386;28;20203;-65
2022/07/24 08:43:41;;;;;;;3.40;3.10;;;;;;;;;;5060116;28;20272;-65
2022/07/24 08:46:11;;;;;;;3.25;3.00;;;;;;;;;;5071791;28;20276;-65
2022/07/24 08:48:42;;;;;;;3.60;3.40;;;;;;;;;;5061276;28;20301;-65
2022/07/24 08:51:09;;;;;;;3.20;3.00;;;;;;;;;;5065509;28;20201;-65
2022/07/24 08:53:36;;;;;;;2.83;2.72;;;;;;;;;;5068294;28;20202;-65
2022/07/24 08:56:03;;;;;;;4.22;3.00;;;;;;;;;;5059780;28;20231;-66
2022/07/24 08:58:30;;;;;;;3.92;3.35;;;;;;;;;;5063642;28;20564;-66
2022/07/24 09:00:57;;;;;;;3.30;3.20;;;;;;;;;;5066819;28;20203;-65
2022/07/24 09:03:26;;;;;;;4.50;3.30;;;;;;;;;;5053228;28;20255;-67
2022/07/24 09:05:56;;;;;;;3.28;3.17;;;;;;;;;;5065534;28;20621;-66
2022/07/24 09:08:23;;;;;;;3.88;3.53;;;;;;;;;;5070763;28;20210;-66
2022/07/24 09:10:59;;;;;;;3.42;3.20;;;;;;;;;;5067252;28;20294;-65
2022/07/24 09:13:29;;;;;;;3.80;3.30;;;;;;;;;;5069111;28;20190;-65
2022/07/24 09:15:56;;;;;;;3.28;3.08;;;;;;;;;;5062126;28;20248;-65
2022/07/24 09:18:28;;;;;;;3.28;3.17;;;;;;;;;;5066919;28;20199;-65
2022/07/24 09:20:56;;;;;;;3.03;2.92;;;;;;;;;;5055721;28;20234;-65
2022/07/24 09:23:23;;;;;;;3.70;3.45;;;;;;;;;;5053864;28;20778;-65
2022/07/24 09:25:51;;;;;;;3.33;3.03;;;;;;;;;;5060599;28;20218;-65
2022/07/24 09:28:21;;;;;;;3.67;3.53;;;;;;;;;;5064130;28;20652;-66
2022/07/24 09:30:48;;;;;;;3.42;3.17;;;;;;;;;;5063202;28;20196;-65
2022/07/24 09:33:17;;;;;;;4.13;3.80;;;;;;;;;;5051399;28;20316;-65
2022/07/24 09:35:47;;;;;;;3.40;3.20;;;;;;;;;;5063121;28;20219;-65
2022/07/24 09:38:15;;;;;;;3.47;2.97;;;;;;;;;;5050552;28;20598;-65
2022/07/24 09:40:43;;;;;;;4.00;3.80;;;;;;;;;;5048678;28;20236;-65
2022/07/24 09:43:21;;;;;;;5.95;3.65;;;;;;;;;;5066390;28;20238;-66
2022/07/24 09:45:53;;;;;;;3.45;3.25;;;;;;;;;;5063619;28;20229;-65
2022/07/24 09:48:22;;;;;;;3.97;3.65;;;;;;;;;;5053762;28;20265;-65
2022/07/24 09:50:52;;;;;;;3.50;3.30;;;;;;;;;;5049529;28;20200;-65
2022/07/24 09:53:20;;;;;;;3.75;3.60;;;;;;;;;;5061690;28;20203;-67
2022/07/24 09:55:57;;;;;;;3.78;3.58;;;;;;;;;;5062510;28;20675;-67
2022/07/24 09:58:24;;;;;;;3.70;3.40;;;;;;;;;;5061851;28;20230;-67
2022/07/24 10:00:52;;;;;;;3.88;3.70;;;;;;;;;;5065611;28;20210;-67
2022/07/24 10:03:20;;;;;;;3.75;3.53;;;;;;;;;;5063182;28;20222;-67
2022/07/24 10:05:47;;;;;;;3.58;3.38;;;;;;;;;;5053204;28;20204;-67
2022/07/24 10:08:16;;;;;;;4.00;3.80;;;;;;;;;;5048148;28;20287;-67
2022/07/24 10:10:43;;;;;;;3.72;3.63;;;;;;;;;;5062802;28;20416;-67
2022/07/24 10:13:10;;;;;;;4.90;4.50;;;;;;;;;;5062361;28;20204;-67
2022/07/24 10:15:42;;;;;;;3.97;3.78;;;;;;;;;;5047797;28;20203;-67
2022/07/24 10:18:16;;;;;;;3.75;3.40;;;;;;;;;;5063457;28;20206;-67
2022/07/24 10:20:44;;;;;;;3.70;3.50;;;;;;;;;;5051494;28;20231;-67
2022/07/24 10:23:17;;;;;;;3.92;3.72;;;;;;;;;;5047264;28;20231;-73
2022/07/24 10:25:54;;;;;;;4.70;4.18;;;;;;;;;;5048735;28;20576;-67
2022/07/24 10:28:27;;;;;;;4.88;4.57;;;;;;;;;;5058349;28;20288;-67
2022/07/24 10:30:54;;;;;;;4.30;4.00;;;;;;;;;;5061243;28;20199;-67
2022/07/24 10:33:21;;;;;;;4.30;4.00;;;;;;;;;;5059713;28;20198;-65
2022/07/24 10:35:49;;;;;;;4.72;4.43;;;;;;;;;;5068118;28;20202;-68
2022/07/24 10:38:18;;;;;;;41.78;4.78;;;;;;;;;;5061540;28;20267;-68
2022/07/24 10:40:46;;;;;;;3.95;3.83;;;;;;;;;;5052839;28;20206;-69
2022/07/24 10:43:16;;;;;;;4.47;4.18;;;;;;;;;;5059443;28;20232;-69
2022/07/24 10:45:44;;;;;;;3.92;3.72;;;;;;;;;;5066848;28;20209;-69
2022/07/24 10:48:27;;;;;;;3.88;3.67;;;;;;;;;;5066160;28;20210;-68
2022/07/24 10:51:06;;;;;;;4.53;4.22;;;;;;;;;;5066338;28;20652;-68
2022/07/24 10:53:44;;;;;;;4.28;4.07;;;;;;;;;;5067264;28;20264;-69
2022/07/24 10:56:19;;;;;;;4.32;4.03;;;;;;;;;;5067460;28;20237;-69
2022/07/24 10:58:54;;;;;;;3.75;3.53;;;;;;;;;;5066936;28;20271;-69
2022/07/24 11:01:31;;;;;;;4.43;4.22;;;;;;;;;;5068967;28;20694;-68
2022/07/24 11:03:58;;;;;;;4.78;4.40;;;;;;;;;;5054265;28;20314;-69
2022/07/24 11:06:39;;;;;;;4.72;4.50;;;;;;;;;;5067981;28;20691;-69
2022/07/24 11:09:06;;;;;;;4.65;4.45;;;;;;;;;;5065133;28;20383;-69
2022/07/24 11:11:33;;;;;;;4.57;4.28;;;;;;;;;;5051435;28;20214;-69
2022/07/24 11:14:02;;;;;;;4.18;3.97;;;;;;;;;;5059886;28;20202;-69
2022/07/24 11:16:33;;;;;;;5.13;4.70;;;;;;;;;;5065303;28;20293;-69
2022/07/24 11:19:18;;;;;;;4.75;4.35;;;;;;;;;;5068107;28;20207;-69
2022/07/24 11:21:46;;;;;;;5.50;5.00;;;;;;;;;;5061529;28;20234;-69
2022/07/24 11:24:17;;;;;;;5.00;4.60;;;;;;;;;;5067264;28;20657;-69
2022/07/24 11:26:47;;;;;;;5.03;4.57;;;;;;;;;;5054417;28;20199;-69
2022/07/24 11:29:17;;;;;;;4.57;4.38;;;;;;;;;;5068995;28;20198;-69
2022/07/24 11:31:44;;;;;;;4.72;4.43;;;;;;;;;;5057077;28;20209;-70
2022/07/24 11:34:11;;;;;;;5.30;4.88;;;;;;;;;;5067320;28;20221;-70
2022/07/24 11:36:41;;;;;;;5.07;4.78;;;;;;;;;;5068857;28;20198;-68
2022/07/24 11:39:08;;;;;;;4.82;4.45;;;;;;;;;;5067627;28;20198;-68
2022/07/24 11:41:45;;;;;;;4.85;4.65;;;;;;;;;;5064751;28;20293;-69
2022/07/24 11:44:12;;;;;;;5.22;4.72;;;;;;;;;;5068474;28;20317;-70
2022/07/24 11:46:41;;;;;;;4.55;4.35;;;;;;;;;;5052747;28;20210;-69
2022/07/24 11:49:09;;;;;;;4.70;4.22;;;;;;;;;;5050310;28;20612;-69
2022/07/24 11:51:41;;;;;;;4.88;4.57;;;;;;;;;;5060066;28;20238;-69
2022/07/24 11:54:09;;;;;;;4.63;4.35;;;;;;;;;;5062983;28;20191;-69
2022/07/24 11:56:36;;;;;;;4.30;4.10;;;;;;;;;;5060797;28;20234;-65
2022/07/24 11:59:03;;;;;;;4.68;4.38;;;;;;;;;;5051898;28;20214;-69
2022/07/24 12:01:30;;;;;;;4.50;4.30;;;;;;;;;;5053826;28;20207;-68
2022/07/24 12:04:00;;;;;;;4.97;4.55;;;;;;;;;;5065416;28;20214;-70
2022/07/24 12:06:28;;;;;;;3.92;3.72;;;;;;;;;;5065935;28;20198;-69
2022/07/24 12:08:58;;;;;;;4.32;4.00;;;;;;;;;;5065346;28;20202;-70
2022/07/24 12:11:25;;;;;;;4.30;4.10;;;;;;;;;;5060087;28;20214;-69
2022/07/24 12:13:53;;;;;;;4.10;3.90;;;;;;;;;;5067871;28;20629;-69
2022/07/24 12:16:24;;;;;;;3.85;3.65;;;;;;;;;;5065500;28;20293;-67
2022/07/24 12:18:51;;;;;;;4.47;4.18;;;;;;;;;;5066513;28;20241;-68
2022/07/24 12:21:20;;;;;;;5.13;4.82;;;;;;;;;;5052454;28;20206;-68
2022/07/24 12:23:47;;;;;;;4.32;4.13;;;;;;;;;;5051339;28;20226;-68
2022/07/24 12:26:14;;;;;;;4.75;4.45;;;;;;;;;;5059891;28;20660;-68
2022/07/24 12:28:41;;;;;;;4.57;4.28;;;;;;;;;;5064367;28;20211;-68
2022/07/24 12:31:09;;;;;;;4.50;4.30;;;;;;;;;;5064658;28;20206;-68
2022/07/24 12:33:36;;;;;;;4.78;4.57;;;;;;;;;;5054474;28;20290;-68
2022/07/24 12:36:08;;;;;;;4.40;4.10;;;;;;;;;;5066972;28;20237;-68
2022/07/24 12:38:37;;;;;;;4.60;4.38;;;;;;;;;;5064719;28;20643;-68
2022/07/24 12:41:05;;;;;;;4.47;4.28;;;;;;;;;;5066059;28;20209;-68
2022/07/24 12:43:32;;;;;;;4.60;4.40;;;;;;;;;;5064698;28;20226;-68
2022/07/24 12:46:06;;;;;;;4.80;4.40;;;;;;;;;;5053880;28;20669;-67
2022/07/24 12:48:33;;;;;;;4.70;4.35;;;;;;;;;;5060631;28;20286;-68
2022/07/24 12:51:01;;;;;;;5.15;4.85;;;;;;;;;;5064924;28;20624;-69
2022/07/24 12:53:29;;;;;;;4.68;4.38;;;;;;;;;;5056498;28;20194;-69
2022/07/24 12:56:05;;;;;;;4.80;4.50;;;;;;;;;;5056237;28;20222;-69
2022/07/24 12:58:47;;;;;;;5.15;4.40;;;;;;;;;;5064267;28;20585;-68
2022/07/24 13:01:14;;;;;;;4.50;4.30;;;;;;;;;;5066342;28;20221;-68
2022/07/24 13:03:42;;;;;;;4.20;4.00;;;;;;;;;;5060864;28;20230;-68
2022/07/24 13:06:10;;;;;;;4.20;4.00;;;;;;;;;;5062739;28;20614;-69
2022/07/24 13:08:37;;;;;;;4.13;3.85;;;;;;;;;;5061656;28;20209;-68
2022/07/24 13:11:05;;;;;;;3.90;3.70;;;;;;;;;;5064633;28;20260;-68
2022/07/24 13:13:32;;;;;;;4.07;3.88;;;;;;;;;;5054141;28;20206;-68
2022/07/24 13:15:59;;;;;;;4.53;4.32;;;;;;;;;;5062137;28;20628;-68
2022/07/24 13:18:26;;;;;;;4.00;3.88;;;;;;;;;;5064411;28;20215;-68
2022/07/24 13:20:56;;;;;;;3.80;3.60;;;;;;;;;;5064147;28;20638;-69
2022/07/24 13:23:23;;;;;;;3.78;3.67;;;;;;;;;;5052328;28;20230;-69
2022/07/24 13:25:50;;;;;;;4.40;4.20;;;;;;;;;;5054911;28;20865;-67
2022/07/24 13:28:18;;;;;;;4.15;3.88;;;;;;;;;;5066736;28;20207;-69
2022/07/24 13:30:45;;;;;;;3.97;3.72;;;;;;;;;;5062606;28;20217;-70
2022/07/24 13:33:13;;;;;;;3.90;3.53;;;;;;;;;;5053595;28;20226;-69
2022/07/24 13:35:40;;;;;;;4.00;3.70;;;;;;;;;;5056573;28;20207;-70
2022/07/24 13:38:07;;;;;;;3.60;3.40;;;;;;;;;;5064495;28;20199;-68
2022/07/24 13:40:34;;;;;;;4.18;4.00;;;;;;;;;;5064720;28;20684;-67
2022/07/24 13:43:01;;;;;;;3.95;3.75;;;;;;;;;;5066631;28;20203;-66
2022/07/24 13:45:29;;;;;;;3.83;3.63;;;;;;;;;;5068490;28;20214;-67
2022/07/24 13:47:56;;;;;;;3.53;3.33;;;;;;;;;;5069276;28;20201;-67
2022/07/24 13:50:23;;;;;;;3.80;3.60;;;;;;;;;;5065898;28;20201;-67
2022/07/24 13:52:50;;;;;;;3.60;3.50;;;;;;;;;;5064903;28;20588;-68
2022/07/24 13:55:17;;;;;;;3.63;3.45;;;;;;;;;;5060207;28;20218;-67
2022/07/24 13:57:44;;;;;;;3.90;3.50;;;;;;;;;;5063724;28;20241;-67
2022/07/24 14:00:14;;;;;;;3.25;3.15;;;;;;;;;;5067903;28;20203;-64
2022/07/24 14:02:42;;;;;;;3.85;3.65;;;;;;;;;;5060240;28;20210;-67
2022/07/24 14:05:09;;;;;;;3.55;3.45;;;;;;;;;;5068994;28;20233;-66
2022/07/24 14:07:36;;;;;;;5.25;3.45;;;;;;;;;;5067503;28;20209;-66
2022/07/24 14:10:04;;;;;;;3.70;3.50;;;;;;;;;;5071000;28;20248;-67
2022/07/24 14:12:31;;;;;;;4.38;3.88;;;;;;;;;;5071410;28;20198;-67
2022/07/24 14:14:58;;;;;;;3.97;3.78;;;;;;;;;;5065786;28;20264;-67
2022/07/24 14:17:25;;;;;;;3.90;3.80;;;;;;;;;;5067057;28;20198;-67
2022/07/24 14:19:53;;;;;;;3.95;3.58;;;;;;;;;;5054289;28;20210;-66
2022/07/24 14:22:20;;;;;;;3.47;3.38;;;;;;;;;;5054446;28;20268;-67
2022/07/24 14:24:47;;;;;;;4.13;3.92;;;;;;;;;;5054667;28;20775;-68
2022/07/24 14:27:14;;;;;;;3.75;3.50;;;;;;;;;;5062848;28;20272;-66
2022/07/24 14:29:41;;;;;;;3.70;3.58;;;;;;;;;;5057979;28;20215;-68
2022/07/24 14:32:08;;;;;;;3.80;3.50;;;;;;;;;;5060253;28;20695;-67
2022/07/24 14:34:35;;;;;;;4.00;3.80;;;;;;;;;;5065562;28;20209;-68
2022/07/24 14:37:04;;;;;;;3.80;3.70;;;;;;;;;;5088678;28;20217;-66
2022/07/24 14:39:31;;;;;;;4.45;4.15;;;;;;;;;;5062560;28;20923;-67
2022/07/24 14:41:58;;;;;;;3.47;3.38;;;;;;;;;;5063778;28;20297;-67
2022/07/24 14:44:25;;;;;;;3.90;3.70;;;;;;;;;;5070885;28;20604;-66
2022/07/24 14:46:52;;;;;;;4.07;3.88;;;;;;;;;;5062199;28;20207;-67
2022/07/24 14:49:19;;;;;;;3.90;3.70;;;;;;;;;;5066076;28;20206;-67